createdAt,value
2022-08-05T00:00:46.717Z,31.61
2022-08-05T00:03:18.798Z,31.61
2022-08-05T00:06:04.637Z,31.88
2022-08-05T00:08:36.389Z,32.05
2022-08-05T00:11:20.661Z,31.19
2022-08-05T00:13:56.921Z,31.87
2022-08-05T00:16:36.582Z,32.26
2022-08-05T00:19:13.161Z,32.13
2022-08-05T00:21:42.669Z,32.05
2022-08-05T00:24:16.139Z,32.35
2022-08-05T00:26:52.002Z,32.20
2022-08-05T00:29:25.441Z,31.48
2022-08-05T00:32:13.245Z,31.73
2022-08-05T00:35:05.287Z,31.50
2022-08-05T00:37:51.358Z,32.07
2022-08-05T00:40:27.100Z,32.61
2022-08-05T00:43:02.265Z,32.51
2022-08-05T00:45:38.867Z,32.92
2022-08-05T00:48:13.669Z,32.85
2022-08-05T00:50:45.967Z,32.94
2022-08-05T00:54:01.401Z,33.32
2022-08-05T00:56:07.824Z,33.41
2022-08-05T00:58:37.751Z,33.26
2022-08-05T01:01:09.032Z,33.79
2022-08-05T01:03:41.749Z,33.49
2022-08-05T01:06:15.341Z,33.32
2022-08-05T01:08:47.130Z,33.10
2022-08-05T01:11:37.072Z,33.45
2022-08-05T01:14:29.380Z,33.65
2022-08-05T01:17:14.020Z,33.86
2022-08-05T01:20:14.075Z,33.59
2022-08-05T01:23:42.238Z,33.89
2022-08-05T01:26:20.270Z,33.77
2022-08-05T01:29:05.094Z,34.05
2022-08-05T01:31:42.802Z,34.23
2022-08-05T01:34:20.232Z,33.93
2022-08-05T01:37:25.168Z,33.97
2022-08-05T01:39:58.848Z,34.33
2022-08-05T01:42:29.479Z,33.73
2022-08-05T01:45:02.415Z,33.83
2022-08-05T01:47:39.288Z,34.13
2022-08-05T01:50:15.660Z,35.08
2022-08-05T01:52:49.962Z,34.74
2022-08-05T01:55:22.839Z,34.98
2022-08-05T01:58:09.880Z,34.25
2022-08-05T02:00:50.615Z,35.00
2022-08-05T02:03:32.095Z,34.56
2022-08-05T02:06:33.772Z,34.65
2022-08-05T02:08:58.940Z,34.30
2022-08-05T02:11:42.124Z,34.75
2022-08-05T02:14:21.901Z,34.89
2022-08-05T02:16:53.757Z,34.21
2022-08-05T02:19:27.869Z,34.78
2022-08-05T02:22:26.757Z,35.10
2022-08-05T02:25:04.969Z,34.93
2022-08-05T02:27:57.908Z,34.60
2022-08-05T02:30:28.468Z,34.81
2022-08-05T02:33:00.791Z,35.01
2022-08-05T02:35:33.225Z,34.52
2022-08-05T02:38:09.348Z,33.94
2022-08-05T02:40:42.735Z,33.84
2022-08-05T02:43:16.084Z,33.93
2022-08-05T02:45:51.386Z,34.60
2022-08-05T02:48:28.781Z,35.18
2022-08-05T02:51:02.913Z,34.96
2022-08-05T02:53:35.895Z,35.48
2022-08-05T02:56:16.024Z,35.72
2022-08-05T02:58:52.805Z,36.03
2022-08-05T03:01:25.476Z,36.11
2022-08-05T03:04:03.251Z,35.90
2022-08-05T03:06:55.219Z,35.84
2022-08-05T03:09:37.385Z,35.93
2022-08-05T03:12:07.809Z,35.83
2022-08-05T03:14:45.727Z,36.28
2022-08-05T03:17:14.605Z,36.22
2022-08-05T03:19:45.519Z,35.78
2022-08-05T03:22:15.955Z,35.98
2022-08-05T03:24:50.690Z,36.34
2022-08-05T03:27:20.978Z,36.20
2022-08-05T03:30:07.568Z,36.58
2022-08-05T03:32:38.585Z,35.76
2022-08-05T03:35:09.155Z,36.45
2022-08-05T03:37:46.450Z,36.52
2022-08-05T03:40:31.136Z,36.62
2022-08-05T03:43:16.047Z,36.67
2022-08-05T03:45:57.713Z,36.23
2022-08-05T03:48:29.088Z,36.55
2022-08-05T03:52:38.009Z,36.62
2022-08-05T03:55:34.230Z,36.15
2022-08-05T03:56:58.970Z,36.12
2022-08-05T03:59:46.947Z,36.08
2022-08-05T04:02:37.834Z,36.25
2022-08-05T04:05:10.213Z,35.88
2022-08-05T04:07:58.041Z,35.85
2022-08-05T04:10:32.143Z,35.91
2022-08-05T04:13:08.544Z,36.75
2022-08-05T04:15:37.258Z,36.73
2022-08-05T04:18:09.417Z,36.82
2022-08-05T04:20:38.553Z,37.02
2022-08-05T04:23:16.057Z,36.73
2022-08-05T04:26:00.295Z,36.25
2022-08-05T04:28:31.712Z,35.99
2022-08-05T04:31:01.488Z,35.82
2022-08-05T04:34:17.118Z,36.03
2022-08-05T04:36:45.973Z,35.55
2022-08-05T04:39:07.399Z,35.78
2022-08-05T04:41:48.452Z,35.48
2022-08-05T04:44:21.480Z,35.92
2022-08-05T04:46:59.972Z,36.25
2022-08-05T04:50:02.419Z,36.29
2022-08-05T04:52:33.283Z,36.15
2022-08-05T04:55:14.628Z,35.76
2022-08-05T04:57:48.027Z,35.77
2022-08-05T05:00:23.378Z,35.43
2022-08-05T05:02:52.560Z,35.92
2022-08-05T05:05:28.056Z,35.37
2022-08-05T05:08:02.559Z,34.79
2022-08-05T05:10:33.202Z,35.04
2022-08-05T05:13:04.291Z,35.00
2022-08-05T05:15:56.890Z,35.40
2022-08-05T05:18:28.774Z,34.99
2022-08-05T05:21:04.046Z,34.76
2022-08-05T05:24:01.840Z,34.74
2022-08-05T05:26:28.563Z,34.33
2022-08-05T05:29:01.434Z,34.37
2022-08-05T05:34:02.448Z,34.67
2022-08-05T05:36:32.114Z,34.77
2022-08-05T05:39:00.177Z,34.81
2022-08-05T05:41:40.514Z,34.47
2022-08-05T05:44:26.978Z,34.45
2022-08-05T05:47:04.022Z,34.25
2022-08-05T05:49:33.487Z,33.39
2022-08-05T05:52:05.907Z,33.07
2022-08-05T05:54:50.899Z,32.90
2022-08-05T05:57:20.449Z,33.22
2022-08-05T05:59:49.235Z,33.37
2022-08-05T06:02:32.664Z,33.04
2022-08-05T06:05:10.575Z,32.84
2022-08-05T06:08:01.351Z,32.54
2022-08-05T06:10:36.435Z,32.41
2022-08-05T06:13:05.827Z,32.38
2022-08-05T06:16:29.205Z,31.68
2022-08-05T06:18:30.808Z,31.78
2022-08-05T06:21:00.651Z,31.49
2022-08-05T06:23:43.656Z,31.41
2022-08-05T06:26:21.258Z,32.02
2022-08-05T06:28:52.324Z,32.48
2022-08-05T06:31:21.914Z,32.80
2022-08-05T06:34:08.062Z,32.21
2022-08-05T06:36:57.107Z,32.23
2022-08-05T06:39:27.820Z,31.77
2022-08-05T06:41:58.943Z,31.71
2022-08-05T06:44:27.835Z,31.04
2022-08-05T06:46:56.694Z,30.51
2022-08-05T06:50:01.676Z,30.29
2022-08-05T06:52:37.780Z,30.17
2022-08-05T06:55:04.437Z,29.94
2022-08-05T06:58:02.677Z,29.35
2022-08-05T07:00:22.463Z,29.25
2022-08-05T07:02:54.091Z,28.53
2022-08-05T07:05:31.933Z,28.08
2022-08-05T07:08:05.599Z,27.74
2022-08-05T07:10:33.786Z,27.39
2022-08-05T07:13:56.941Z,27.98
2022-08-05T07:17:56.637Z,27.82
2022-08-05T07:19:38.932Z,27.44
2022-08-05T07:22:06.162Z,27.59
2022-08-05T07:24:44.003Z,27.19
2022-08-05T07:27:22.213Z,26.97
2022-08-05T07:30:22.354Z,26.19
2022-08-05T07:32:50.854Z,26.23
2022-08-05T07:36:01.748Z,25.36
2022-08-05T07:38:12.384Z,24.48
2022-08-05T07:40:55.703Z,25.01
2022-08-05T07:43:29.896Z,25.58
2022-08-05T07:45:58.485Z,26.54
2022-08-05T07:49:01.798Z,24.94
2022-08-05T07:51:23.146Z,23.65
2022-08-05T07:53:52.079Z,23.86
2022-08-05T07:56:49.018Z,24.23
2022-08-05T07:59:10.704Z,23.89
2022-08-05T08:01:41.673Z,23.95
2022-08-05T08:04:34.313Z,23.19
2022-08-05T08:07:07.440Z,23.95
2022-08-05T08:09:35.575Z,24.29
2022-08-05T08:12:14.617Z,24.47
2022-08-05T08:14:49.407Z,24.21
2022-08-05T08:17:17.473Z,24.03
2022-08-05T08:20:22.334Z,24.30
2022-08-05T08:22:38.405Z,25.04
2022-08-05T08:25:16.178Z,24.63
2022-08-05T08:27:47.809Z,24.76
2022-08-05T08:30:32.687Z,24.30
2022-08-05T08:33:13.822Z,24.80
2022-08-05T08:35:52.417Z,25.18
2022-08-05T08:38:35.262Z,24.31
2022-08-05T08:41:08.781Z,24.02
2022-08-05T08:45:19.739Z,24.20
2022-08-05T08:46:29.525Z,24.10
2022-08-05T08:49:09.615Z,24.23
2022-08-05T08:52:13.295Z,23.75
2022-08-05T08:54:43.939Z,22.98
2022-08-05T08:57:14.624Z,23.51
2022-08-05T08:59:48.953Z,24.02
2022-08-05T09:02:19.667Z,24.34
2022-08-05T09:05:16.994Z,24.43
2022-08-05T09:07:39.962Z,24.61
2022-08-05T09:10:27.050Z,24.18
2022-08-05T09:13:04.986Z,24.07
2022-08-05T09:15:37.017Z,23.72
2022-08-05T09:18:09.036Z,24.16
2022-08-05T09:20:38.450Z,23.91
2022-08-05T09:23:19.558Z,23.25
2022-08-05T09:26:03.234Z,22.44
2022-08-05T09:28:34.240Z,23.08
2022-08-05T09:31:22.949Z,22.80
2022-08-05T09:33:59.488Z,23.92
2022-08-05T09:36:54.014Z,22.90
2022-08-05T09:39:41.148Z,22.76
2022-08-05T09:42:24.522Z,23.21
2022-08-05T09:45:03.293Z,24.30
2022-08-05T09:47:55.475Z,23.23
2022-08-05T09:50:37.796Z,23.72
2022-08-05T09:53:08.919Z,22.78
2022-08-05T09:55:57.525Z,22.71
2022-08-05T09:58:29.207Z,21.81
2022-08-05T10:01:15.349Z,22.02
2022-08-05T10:04:10.280Z,23.87
2022-08-05T10:06:54.816Z,23.25
2022-08-05T10:09:29.318Z,21.85
2022-08-05T10:12:30.576Z,21.80
2022-08-05T10:15:22.414Z,23.57
2022-08-05T10:18:32.533Z,21.96
2022-08-05T10:21:11.934Z,21.51
2022-08-05T10:23:55.900Z,22.03
2022-08-05T10:26:31.618Z,21.91
2022-08-05T10:29:01.286Z,22.00
2022-08-05T10:32:52.605Z,22.21
2022-08-05T10:34:17.814Z,22.48
2022-08-05T10:36:54.405Z,22.43
2022-08-05T10:39:59.322Z,21.85
2022-08-05T10:42:32.378Z,22.52
2022-08-05T10:45:21.327Z,22.40
2022-08-05T10:48:29.948Z,22.74
2022-08-05T10:51:22.394Z,23.72
2022-08-05T10:53:50.859Z,24.01
2022-08-05T10:56:26.021Z,23.04
2022-08-05T10:58:54.205Z,21.80
2022-08-05T11:01:54.186Z,21.50
2022-08-05T11:04:23.468Z,21.89
2022-08-05T11:06:58.019Z,21.95
2022-08-05T11:09:46.429Z,21.57
2022-08-05T11:12:27.004Z,21.91
2022-08-05T11:15:20.502Z,21.81
2022-08-05T11:18:09.554Z,22.52
2022-08-05T11:20:44.699Z,21.55
2022-08-05T11:24:02.368Z,22.13
2022-08-05T11:26:33.935Z,22.33
2022-08-05T11:29:13.311Z,22.21
2022-08-05T11:31:58.329Z,22.37
2022-08-05T11:34:47.546Z,22.20
2022-08-05T11:38:29.986Z,22.06
2022-08-05T11:41:35.146Z,23.05
2022-08-05T11:44:04.925Z,22.13
2022-08-05T11:47:09.344Z,21.71
2022-08-05T11:49:35.189Z,21.99
2022-08-05T11:52:11.271Z,22.01
2022-08-05T11:54:41.434Z,21.33
2022-08-05T11:57:25.180Z,21.00
2022-08-05T11:59:55.370Z,21.82
2022-08-05T12:02:32.364Z,21.94
2022-08-05T12:05:07.439Z,21.74
2022-08-05T12:08:03.379Z,22.61
2022-08-05T12:10:43.037Z,21.91
2022-08-05T12:13:27.610Z,21.74
2022-08-05T12:16:14.233Z,21.09
2022-08-05T12:18:49.319Z,22.17
2022-08-05T12:21:32.069Z,21.63
2022-08-05T12:24:07.121Z,21.78
2022-08-05T12:26:38.226Z,22.64
2022-08-05T12:29:11.828Z,21.77
2022-08-05T12:31:52.986Z,22.21
2022-08-05T12:34:28.891Z,21.42
2022-08-05T12:36:59.444Z,21.53
2022-08-05T12:39:34.694Z,21.76
2022-08-05T12:42:16.571Z,22.50
2022-08-05T12:44:47.593Z,21.96
2022-08-05T12:47:31.117Z,21.20
2022-08-05T12:50:02.362Z,21.46
2022-08-05T12:52:39.467Z,23.10
2022-08-05T12:55:23.854Z,22.92
2022-08-05T12:58:48.355Z,22.90
2022-08-05T13:02:04.266Z,22.80
2022-08-05T13:03:41.575Z,23.52
2022-08-05T13:06:18.196Z,23.68
2022-08-05T13:08:51.751Z,23.34
2022-08-05T13:12:02.150Z,23.43
2022-08-05T13:14:36.786Z,22.83
2022-08-05T13:17:20.613Z,22.69
2022-08-05T13:20:11.585Z,22.65
2022-08-05T13:22:43.427Z,21.06
2022-08-05T13:25:19.217Z,20.70
2022-08-05T13:27:52.759Z,21.71
2022-08-05T13:30:34.318Z,22.88
2022-08-05T13:33:05.208Z,22.54
2022-08-05T13:35:42.795Z,21.64
2022-08-05T13:38:28.527Z,22.25
2022-08-05T13:41:00.678Z,21.97
2022-08-05T13:43:44.988Z,21.13
2022-08-05T13:46:30.752Z,22.09
2022-08-05T13:49:10.457Z,21.98
2022-08-05T13:51:46.158Z,20.98
2022-08-05T13:54:21.171Z,21.03
2022-08-05T13:56:54.132Z,20.22
2022-08-05T13:59:26.937Z,21.94
2022-08-05T14:02:00.002Z,21.74
2022-08-05T14:04:51.074Z,21.88
2022-08-05T14:07:56.270Z,21.08
2022-08-05T14:10:18.798Z,21.43
2022-08-05T14:12:48.814Z,21.83
2022-08-05T14:16:08.818Z,20.38
2022-08-05T14:18:06.561Z,20.18
2022-08-05T14:20:48.205Z,19.66
2022-08-05T14:23:24.986Z,21.05
2022-08-05T14:25:58.833Z,21.26
2022-08-05T14:28:29.261Z,21.22
2022-08-05T14:30:59.001Z,21.81
2022-08-05T14:33:27.094Z,21.98
2022-08-05T14:36:02.064Z,21.27
2022-08-05T14:38:34.177Z,20.56
2022-08-05T14:41:07.407Z,20.69
2022-08-05T14:44:02.551Z,21.33
2022-08-05T14:46:29.807Z,21.76
2022-08-05T14:49:06.963Z,20.68
2022-08-05T14:51:42.650Z,20.11
2022-08-05T14:54:28.367Z,20.58
2022-08-05T14:57:00.092Z,20.09
2022-08-05T14:59:35.830Z,20.26
2022-08-05T15:02:15.032Z,20.47
2022-08-05T15:04:44.932Z,20.40
2022-08-05T15:08:06.043Z,21.13
2022-08-05T15:10:04.861Z,21.39
2022-08-05T15:12:58.047Z,21.12
2022-08-05T15:15:55.933Z,21.43
2022-08-05T15:18:18.137Z,21.56
2022-08-05T15:20:46.861Z,21.34
2022-08-05T15:23:16.058Z,20.15
2022-08-05T15:25:52.335Z,21.53
2022-08-05T15:28:27.174Z,21.45
2022-08-05T15:30:57.401Z,20.58
2022-08-05T15:34:05.114Z,20.98
2022-08-05T15:36:17.249Z,21.04
2022-08-05T15:40:41.776Z,21.19
2022-08-05T15:41:55.712Z,21.45
2022-08-05T15:44:30.360Z,20.13
2022-08-05T15:47:01.904Z,20.39
2022-08-05T15:49:53.397Z,20.16
2022-08-05T15:52:51.954Z,21.62
2022-08-05T15:55:15.443Z,21.21
2022-08-05T15:57:49.092Z,20.37
2022-08-05T16:00:30.510Z,21.54
2022-08-05T16:03:07.021Z,20.92
2022-08-05T16:05:35.307Z,20.10
2022-08-05T16:08:07.156Z,21.06
2022-08-05T16:10:36.611Z,21.57
2022-08-05T16:13:05.226Z,21.27
2022-08-05T16:15:33.966Z,20.99
2022-08-05T16:18:04.137Z,20.56
2022-08-05T16:20:37.407Z,21.46
2022-08-05T16:23:05.510Z,20.02
2022-08-05T16:25:37.732Z,20.68
2022-08-05T16:28:10.291Z,21.09
2022-08-05T16:30:38.656Z,21.04
2022-08-05T16:33:06.997Z,21.10
2022-08-05T16:35:42.322Z,21.17
2022-08-05T16:38:24.208Z,21.00
2022-08-05T16:41:00.439Z,20.07
2022-08-05T16:43:35.230Z,20.63
2022-08-05T16:46:23.846Z,20.66
2022-08-05T16:48:53.216Z,20.94
2022-08-05T16:51:24.724Z,20.29
2022-08-05T16:54:03.991Z,20.62
2022-08-05T16:56:36.282Z,20.17
2022-08-05T16:59:10.817Z,21.39
2022-08-05T17:01:52.795Z,21.56
2022-08-05T17:04:26.543Z,21.94
2022-08-05T17:07:00.335Z,21.50
2022-08-05T17:09:30.476Z,22.10
2022-08-05T17:12:07.509Z,22.03
2022-08-05T17:14:38.016Z,21.73
2022-08-05T17:17:14.465Z,21.66
2022-08-05T17:19:45.884Z,21.89
2022-08-05T17:22:25.022Z,21.91
2022-08-05T17:24:57.149Z,21.95
2022-08-05T17:27:33.831Z,22.74
2022-08-05T17:30:11.778Z,22.63
2022-08-05T17:32:42.025Z,23.32
2022-08-05T17:35:15.686Z,22.92
2022-08-05T17:37:49.370Z,22.68
2022-08-05T17:40:22.592Z,23.54
2022-08-05T17:42:53.007Z,23.55
2022-08-05T17:45:29.721Z,23.96
2022-08-05T17:48:08.344Z,23.62
2022-08-05T17:50:36.671Z,24.28
2022-08-05T17:53:08.478Z,24.47
2022-08-05T17:55:39.916Z,25.05
2022-08-05T17:58:11.271Z,25.18
2022-08-05T18:00:45.283Z,24.95
2022-08-05T18:03:56.476Z,24.98
2022-08-05T18:06:11.483Z,25.83
2022-08-05T18:08:44.876Z,25.44
2022-08-05T18:11:23.616Z,26.07
2022-08-05T18:13:54.788Z,25.60
2022-08-05T18:16:23.848Z,25.36
2022-08-05T18:18:54.927Z,25.73
2022-08-05T18:21:26.043Z,25.70
2022-08-05T18:23:55.512Z,25.48
2022-08-05T18:26:27.449Z,25.73
2022-08-05T18:28:58.423Z,25.99
2022-08-05T18:31:33.947Z,25.64
2022-08-05T18:34:05.773Z,25.97
2022-08-05T18:36:35.699Z,25.50
2022-08-05T18:39:22.323Z,25.88
2022-08-05T18:42:03.575Z,25.89
2022-08-05T18:44:55.402Z,25.75
2022-08-05T18:47:26.619Z,25.72
2022-08-05T18:50:15.698Z,25.89
2022-08-05T18:52:50.922Z,25.81
2022-08-05T18:55:21.735Z,26.14
2022-08-05T18:57:54.165Z,25.51
2022-08-05T19:00:31.965Z,26.04
2022-08-05T19:03:04.704Z,25.86
2022-08-05T19:06:11.530Z,26.23
2022-08-05T19:08:30.562Z,26.23
2022-08-05T19:11:04.884Z,26.23
2022-08-05T19:13:36.160Z,26.10
2022-08-05T19:16:25.435Z,26.15
2022-08-05T19:18:56.851Z,26.21
2022-08-05T19:21:27.729Z,25.90
2022-08-05T19:24:07.125Z,25.95
2022-08-05T19:26:54.333Z,26.42
2022-08-05T19:29:26.598Z,26.44
2022-08-05T19:32:11.444Z,26.76
2022-08-05T19:34:40.620Z,26.44
2022-08-05T19:37:10.809Z,26.17
2022-08-05T19:39:45.492Z,26.52
2022-08-05T19:42:35.653Z,26.21
2022-08-05T19:45:05.992Z,26.12
2022-08-05T19:47:37.190Z,27.42
2022-08-05T19:50:07.830Z,27.51
2022-08-05T19:52:39.354Z,28.14
2022-08-05T19:56:11.578Z,28.71
2022-08-05T19:58:19.689Z,28.62
2022-08-05T20:00:44.543Z,29.03
2022-08-05T20:03:12.872Z,28.96
2022-08-05T20:05:49.893Z,28.94
2022-08-05T20:08:20.571Z,28.90
2022-08-05T20:10:54.223Z,28.25
2022-08-05T20:13:30.007Z,28.02
2022-08-05T20:16:11.935Z,27.90
2022-08-05T20:18:40.117Z,27.25
2022-08-05T20:21:08.290Z,27.17
2022-08-05T20:23:39.929Z,27.23
2022-08-05T20:26:25.283Z,26.34
2022-08-05T20:29:00.632Z,26.26
2022-08-05T20:31:42.044Z,26.36
2022-08-05T20:34:12.298Z,26.05
2022-08-05T20:36:43.337Z,25.83
2022-08-05T20:39:13.742Z,25.36
2022-08-05T20:42:24.043Z,25.29
2022-08-05T20:44:56.452Z,25.92
2022-08-05T20:47:32.258Z,25.75
2022-08-05T20:50:02.325Z,25.01
2022-08-05T20:52:33.955Z,25.45
2022-08-05T20:56:07.340Z,25.05
2022-08-05T20:57:51.905Z,24.63
2022-08-05T21:00:44.277Z,24.83
2022-08-05T21:03:16.602Z,24.85
2022-08-05T21:05:54.564Z,24.94
2022-08-05T21:08:42.405Z,25.05
2022-08-05T21:11:12.980Z,25.47
2022-08-05T21:14:01.637Z,25.05
2022-08-05T21:16:30.916Z,24.74
2022-08-05T21:19:01.176Z,25.66
2022-08-05T21:21:44.216Z,25.30
2022-08-05T21:24:19.736Z,24.99
2022-08-05T21:26:56.199Z,25.26
2022-08-05T21:29:31.836Z,24.78
2022-08-05T21:32:04.354Z,24.99
2022-08-05T21:34:32.890Z,25.08
2022-08-05T21:37:01.880Z,25.06
2022-08-05T21:39:30.717Z,25.43
2022-08-05T21:42:03.206Z,25.79
2022-08-05T21:44:32.430Z,25.91
2022-08-05T21:47:01.625Z,26.27
2022-08-05T21:49:58.931Z,26.33
2022-08-05T21:52:27.353Z,26.21
2022-08-05T21:55:07.029Z,26.63
2022-08-05T21:57:42.718Z,26.52
2022-08-05T22:00:13.076Z,26.31
2022-08-05T22:02:43.495Z,26.05
2022-08-05T22:05:12.697Z,26.09
2022-08-05T22:07:58.102Z,25.80
2022-08-05T22:10:29.118Z,25.99
2022-08-05T22:13:08.717Z,26.36
2022-08-05T22:16:02.653Z,26.27
2022-08-05T22:18:36.475Z,26.11
2022-08-05T22:21:18.707Z,26.21
2022-08-05T22:24:13.094Z,27.02
2022-08-05T22:27:17.242Z,27.57
2022-08-05T22:29:46.197Z,28.03
2022-08-05T22:32:22.942Z,27.68
2022-08-05T22:34:51.529Z,27.78
2022-08-05T22:37:19.488Z,27.16
2022-08-05T22:39:50.438Z,27.04
2022-08-05T22:42:26.248Z,28.11
2022-08-05T22:44:56.780Z,28.23
2022-08-05T22:47:30.209Z,27.75
2022-08-05T22:50:23.190Z,27.57
2022-08-05T22:52:51.523Z,27.94
2022-08-05T22:55:22.688Z,27.81
2022-08-05T22:57:52.369Z,28.31
2022-08-05T23:00:23.075Z,28.19
2022-08-05T23:02:53.684Z,28.01
2022-08-05T23:05:23.208Z,27.78
2022-08-05T23:07:52.515Z,27.50
2022-08-05T23:10:23.667Z,27.53
2022-08-05T23:12:54.391Z,27.74
2022-08-05T23:15:34.802Z,28.10
2022-08-05T23:18:11.489Z,28.42
2022-08-05T23:20:43.909Z,28.66
2022-08-05T23:23:12.093Z,28.66
2022-08-05T23:25:52.435Z,28.09
2022-08-05T23:28:29.200Z,29.16
2022-08-05T23:31:07.066Z,29.05
2022-08-05T23:34:03.712Z,29.03
2022-08-05T23:36:41.427Z,29.86
2022-08-05T23:39:32.056Z,29.86
2022-08-05T23:42:08.657Z,30.03
2022-08-05T23:44:43.506Z,29.66
2022-08-05T23:47:15.521Z,30.32
2022-08-05T23:49:47.349Z,30.53
2022-08-05T23:52:27.879Z,29.99
2022-08-05T23:54:59.123Z,30.40
2022-08-05T23:57:28.526Z,30.88
